Time;durP1;ratioP1;P1;durP2;ratioP2;P2;SDS_P1;SDS_P2;PMS_P1;PMS_P2;Temp;Humidity;BMP_temperature;BMP_pressure;BME280_temperature;BME280_humidity;BME280_pressure;Samples;Min_cycle;Max_cycle;Signal;HPM_P1;HPM_P2
2021/06/14 00:00:22;;;;;;;1.57;1.03;;;;;;;14.85;53.36;101270.69;5108756;28;20670;-74
2021/06/14 00:02:50;;;;;;;2.30;1.20;;;;;;;14.78;53.13;101264.03;5109933;28;20216;-73
2021/06/14 00:05:30;;;;;;;1.27;1.10;;;;;;;14.78;53.37;101276.69;5106749;28;20567;-74
2021/06/14 00:07:59;;;;;;;1.50;1.40;;;;;;;14.72;53.48;101271.78;5108182;28;20656;-74
2021/06/14 00:10:31;;;;;;;1.43;1.20;;;;;;;14.62;54.48;101268.03;5106357;28;20233;-74
2021/06/14 00:13:00;;;;;;;1.70;1.33;;;;;;;14.59;54.09;101279.94;5108213;28;20227;-73
2021/06/14 00:15:29;;;;;;;2.63;1.10;;;;;;;14.07;54.00;101202.75;5108356;28;20230;-73
2021/06/14 00:17:58;;;;;;;2.30;1.30;;;;;;;14.46;53.87;101274.63;5108102;27;20582;-74
2021/06/14 00:20:28;;;;;;;1.20;1.10;;;;;;;14.43;54.01;101284.78;5108554;28;20662;-73
2021/06/14 00:22:56;;;;;;;1.40;1.30;;;;;;;14.37;54.70;101285.19;5107193;28;20599;-73
2021/06/14 00:25:26;;;;;;;5.67;1.60;;;;;;;14.30;55.09;101282.97;5108533;28;20199;-73
2021/06/14 00:27:55;;;;;;;1.47;1.20;;;;;;;14.31;54.77;101275.72;5107096;28;20601;-73
2021/06/14 00:30:26;;;;;;;1.90;1.40;;;;;;;14.26;54.50;101283.31;5106201;28;20212;-74
2021/06/14 00:32:55;;;;;;;1.40;1.30;;;;;;;14.23;54.43;101275.44;5105860;28;20548;-73
2021/06/14 00:35:23;;;;;;;4.13;1.40;;;;;;;14.18;54.72;101269.50;5106246;28;20199;-73
2021/06/14 00:37:52;;;;;;;2.60;1.37;;;;;;;14.11;55.52;101268.25;5105865;28;20206;-73
2021/06/14 00:40:21;;;;;;;2.47;1.17;;;;;;;14.05;55.93;101268.69;5093376;27;20312;-74
2021/06/14 00:42:50;;;;;;;1.53;1.00;;;;;;;14.03;55.48;101262.53;5105512;28;20700;-73
2021/06/14 00:45:21;;;;;;;0.93;0.93;;;;;;;13.82;55.50;101238.84;5106345;28;20789;-73
2021/06/14 00:47:50;;;;;;;1.50;1.33;;;;;;;13.97;55.17;101269.25;5107786;28;20589;-73
2021/06/14 00:50:22;;;;;;;3.50;1.60;;;;;;;13.86;56.57;101253.84;5106349;28;20198;-73
2021/06/14 00:52:52;;;;;;;3.83;1.20;;;;;;;13.79;57.31;101266.09;5123812;27;20210;-73
2021/06/14 00:55:20;;;;;;;1.67;1.20;;;;;;;13.62;56.51;101234.03;5105494;28;20217;-74
2021/06/14 00:57:49;;;;;;;3.53;1.40;;;;;;;13.71;56.74;101257.66;5124133;28;20673;-74
2021/06/14 01:00:18;;;;;;;2.43;1.67;;;;;;;13.53;57.37;101237.41;5107994;28;20190;-74
2021/06/14 01:02:54;;;;;;;2.23;1.40;;;;;;;13.60;57.70;101254.88;5104283;28;20309;-73
2021/06/14 01:05:23;;;;;;;1.40;1.30;;;;;;;13.58;57.42;101251.44;5105731;28;20234;-73
2021/06/14 01:07:55;;;;;;;1.70;1.30;;;;;;;13.60;56.99;101257.56;5106894;28;20221;-73
2021/06/14 01:10:25;;;;;;;4.43;1.40;;;;;;;13.53;57.54;101250.91;5107207;28;20193;-73
2021/06/14 01:13:06;;;;;;;3.60;1.40;;;;;;;13.50;58.10;101251.13;5102485;28;20202;-72
2021/06/14 01:15:44;;;;;;;2.93;1.50;;;;;;;13.44;57.89;101252.41;5104951;28;20238;-73
2021/06/14 01:18:15;;;;;;;4.13;1.77;;;;;;;13.42;58.11;101246.25;5101449;28;20198;-73
2021/06/14 01:20:55;;;;;;;2.33;1.50;;;;;;;13.41;59.23;101252.63;5104803;28;20194;-72
2021/06/14 01:23:49;;;;;;;3.43;1.60;;;;;;;13.32;60.55;101248.75;5106812;28;20616;-72
2021/06/14 01:26:20;;;;;;;2.17;1.70;;;;;;;13.29;59.91;101254.38;5122486;28;20201;-73
2021/06/14 01:28:53;;;;;;;2.60;1.87;;;;;;;13.33;59.69;101245.09;5107300;28;20275;-73
2021/06/14 01:31:28;;;;;;;5.27;1.80;;;;;;;13.36;60.49;101250.25;5103882;28;20247;-73
2021/06/14 01:33:58;;;;;;;5.90;1.97;;;;;;;13.42;59.70;101229.22;5122502;27;20292;-73
2021/06/14 01:36:30;;;;;;;8.47;1.80;;;;;;;13.53;59.33;101237.41;5118913;28;20207;-73
2021/06/14 01:38:59;;;;;;;6.83;1.97;;;;;;;13.54;59.28;101237.31;5105889;28;20220;-73
2021/06/14 01:41:30;;;;;;;7.67;2.77;;;;;;;13.39;59.98;101200.63;5110838;28;20204;-73
2021/06/14 01:44:12;;;;;;;3.17;1.90;;;;;;;13.57;60.25;101230.81;5109662;28;20247;-73
2021/06/14 01:46:45;;;;;;;3.60;1.90;;;;;;;13.67;59.71;101229.16;5118953;27;20202;-73
2021/06/14 01:49:14;;;;;;;4.60;2.03;;;;;;;13.64;60.79;101224.00;5109483;28;20582;-73
2021/06/14 01:51:47;;;;;;;3.43;2.23;;;;;;;13.68;61.06;101223.66;5105586;28;20222;-73
2021/06/14 01:54:21;;;;;;;6.07;2.20;;;;;;;13.62;61.99;101234.91;5110528;28;20556;-73
2021/06/14 01:57:02;;;;;;;4.33;2.30;;;;;;;13.71;60.71;101222.56;5114604;27;20211;-73
2021/06/14 01:59:47;;;;;;;4.13;2.10;;;;;;;13.82;60.51;101213.69;5109291;28;20206;-73
2021/06/14 02:02:24;;;;;;;4.53;2.13;;;;;;;13.88;60.04;101218.63;5110148;28;20634;-73
2021/06/14 02:04:53;;;;;;;3.60;2.23;;;;;;;13.95;59.57;101223.47;5110436;28;20237;-73
2021/06/14 02:07:28;;;;;;;5.30;2.13;;;;;;;13.89;60.10;101201.47;5109894;28;20213;-73
2021/06/14 02:09:58;;;;;;;6.67;2.37;;;;;;;13.96;60.65;101211.69;5111897;28;20197;-72
2021/06/14 02:12:29;;;;;;;4.80;2.30;;;;;;;14.02;59.18;101209.50;5093249;28;20302;-72
2021/06/14 02:15:00;;;;;;;3.27;2.20;;;;;;;13.98;61.27;101209.72;5112459;27;20241;-72
2021/06/14 02:17:31;;;;;;;2.93;1.93;;;;;;;14.03;59.52;101203.13;5107912;28;20215;-73
2021/06/14 02:20:00;;;;;;;5.87;2.20;;;;;;;14.10;59.78;101207.09;5110709;28;20198;-72
2021/06/14 02:22:36;;;;;;;6.93;2.77;;;;;;;14.12;60.86;101210.56;5104865;27;20192;-73
2021/06/14 02:25:06;;;;;;;5.70;2.13;;;;;;;14.13;61.29;101196.94;5110341;28;20272;-72
2021/06/14 02:27:34;;;;;;;5.43;2.63;;;;;;;14.18;61.28;101191.19;5102382;28;20214;-72
2021/06/14 02:30:12;;;;;;;6.53;2.60;;;;;;;14.36;60.40;101200.56;5110228;27;20575;-72
2021/06/14 02:32:41;;;;;;;8.27;3.00;;;;;;;14.62;59.78;101201.31;5110165;28;20221;-72
2021/06/14 02:35:11;;;;;;;6.50;2.50;;;;;;;15.08;59.41;101195.00;5110701;28;20669;-72
2021/06/14 02:37:45;;;;;;;7.17;2.37;;;;;;;15.65;59.26;101192.19;5112196;28;20204;-72
2021/06/14 02:40:15;;;;;;;7.00;2.43;;;;;;;16.31;57.06;101176.72;5117071;27;20784;-72
2021/06/14 02:42:45;;;;;;;4.80;2.50;;;;;;;16.99;56.04;101169.06;5122706;27;20200;-72
2021/06/14 02:45:15;;;;;;;4.47;2.23;;;;;;;17.88;54.27;101170.97;5110862;28;20606;-73
2021/06/14 02:47:46;;;;;;;5.93;2.60;;;;;;;18.43;52.20;101126.94;5110962;28;20204;-72
2021/06/14 02:50:20;;;;;;;6.70;2.10;;;;;;;19.40;51.49;101177.38;5108458;28;20538;-73
2021/06/14 02:52:51;;;;;;;6.13;2.20;;;;;;;20.12;48.53;101187.44;5121682;27;20227;-72
2021/06/14 02:55:27;;;;;;;8.17;2.20;;;;;;;20.53;47.87;101149.66;5109899;28;20726;-73
2021/06/14 02:57:59;;;;;;;3.80;2.23;;;;;;;20.86;46.62;101177.22;5111897;28;20195;-73
2021/06/14 03:00:33;;;;;;;4.70;2.30;;;;;;;21.22;45.29;101167.00;5109526;28;20207;-73
2021/06/14 03:03:06;;;;;;;6.63;2.23;;;;;;;21.36;44.78;101163.69;5110846;28;20200;-72
2021/06/14 03:05:36;;;;;;;5.07;2.20;;;;;;;21.36;44.82;101167.28;5109496;27;20840;-72
2021/06/14 03:08:06;;;;;;;7.57;2.50;;;;;;;21.19;44.96;101161.88;5102849;28;20201;-72
2021/06/14 03:10:35;;;;;;;2.67;1.97;;;;;;;21.28;45.06;101172.72;5107880;28;21225;-72
2021/06/14 03:13:06;;;;;;;4.57;2.10;;;;;;;21.26;44.96;101182.94;5109874;28;20204;-72
2021/06/14 03:15:36;;;;;;;4.33;2.47;;;;;;;20.99;44.93;101150.31;5110482;28;20219;-72
2021/06/14 03:18:06;;;;;;;2.93;2.20;;;;;;;20.89;44.99;101166.81;5100997;27;20188;-72
2021/06/14 03:20:36;;;;;;;6.27;2.40;;;;;;;20.36;45.86;101162.28;5106719;28;20291;-73
2021/06/14 03:23:04;;;;;;;5.90;2.80;;;;;;;20.29;45.90;101152.16;5095799;28;20878;-72
2021/06/14 03:25:32;;;;;;;4.70;2.20;;;;;;;19.65;46.51;101150.47;5110645;28;20219;-72
2021/06/14 03:28:04;;;;;;;4.13;2.10;;;;;;;19.62;46.70;101169.84;5110559;28;20893;-72
2021/06/14 03:30:32;;;;;;;3.20;2.20;;;;;;;19.34;47.37;101179.84;5110652;28;20229;-72
2021/06/14 03:33:05;;;;;;;7.60;2.40;;;;;;;18.79;48.55;101131.59;5110064;28;20200;-72
2021/06/14 03:35:34;;;;;;;6.53;2.13;;;;;;;18.92;48.71;101167.50;5110716;28;20196;-72
2021/06/14 03:38:04;;;;;;;5.23;2.30;;;;;;;18.94;49.22;101175.53;5109429;28;20691;-72
2021/06/14 03:40:32;;;;;;;3.50;2.07;;;;;;;18.86;49.16;101175.41;5108483;28;20271;-72
2021/06/14 03:43:02;;;;;;;4.97;2.43;;;;;;;18.65;49.63;101164.69;5125638;27;20286;-72
2021/06/14 03:45:30;;;;;;;3.67;2.27;;;;;;;18.65;49.80;101172.00;5109837;28;20215;-72
2021/06/14 03:47:59;;;;;;;6.03;2.57;;;;;;;18.42;50.84;101168.72;5107447;28;20210;-72
2021/06/14 03:50:29;;;;;;;3.47;2.03;;;;;;;18.43;50.50;101170.44;5108726;28;20204;-72
2021/06/14 03:52:57;;;;;;;6.43;2.70;;;;;;;18.44;51.44;101172.16;5107097;27;20195;-72
2021/06/14 03:55:25;;;;;;;6.93;2.37;;;;;;;18.44;52.01;101178.47;5103583;28;20271;-72
2021/06/14 03:57:53;;;;;;;6.23;2.30;;;;;;;18.52;50.18;101178.59;5107028;27;20199;-72
2021/06/14 04:00:23;;;;;;;7.57;2.90;;;;;;;18.13;53.10;101175.03;5099259;28;20256;-72
2021/06/14 04:02:51;;;;;;;6.07;2.90;;;;;;;18.03;52.62;101185.00;5108961;28;20215;-72
2021/06/14 04:05:31;;;;;;;6.37;2.57;;;;;;;17.95;53.05;101177.56;5109313;28;20307;-72
2021/06/14 04:08:26;;;;;;;5.17;2.53;;;;;;;18.00;51.73;101174.41;5103070;28;20284;-72
2021/06/14 04:10:54;;;;;;;4.97;2.50;;;;;;;17.98;52.39;101170.97;5109450;28;20655;-72
2021/06/14 04:13:22;;;;;;;9.10;2.60;;;;;;;18.15;52.03;101169.44;5105616;28;20295;-72
2021/06/14 04:15:50;;;;;;;7.53;2.43;;;;;;;17.91;53.12;101150.81;5105844;28;20227;-72
2021/06/14 04:18:18;;;;;;;7.90;2.83;;;;;;;17.98;52.89;101174.56;5110697;27;20607;-72
2021/06/14 04:20:48;;;;;;;7.43;3.00;;;;;;;17.81;54.21;101167.13;5111740;27;20726;-72
2021/06/14 04:23:16;;;;;;;5.93;2.80;;;;;;;17.61;55.11;101163.44;5113425;27;20590;-72
2021/06/14 04:25:45;;;;;;;5.67;2.57;;;;;;;17.51;55.29;101168.00;5109115;28;20612;-72
2021/06/14 04:28:13;;;;;;;8.50;2.90;;;;;;;17.66;54.30;101171.19;5123618;27;20645;-72
2021/06/14 04:30:41;;;;;;;6.43;2.40;;;;;;;17.57;55.17;101172.88;5109764;27;20204;-73
2021/06/14 04:33:09;;;;;;;5.40;3.03;;;;;;;17.42;56.51;101171.53;5102390;27;20196;-73
2021/06/14 04:35:37;;;;;;;5.20;2.47;;;;;;;17.54;54.33;101164.16;5108702;28;20207;-72
2021/06/14 04:38:07;;;;;;;12.33;3.07;;;;;;;17.45;56.08;101155.00;5113197;27;20188;-72
2021/06/14 04:40:35;;;;;;;6.03;2.83;;;;;;;17.63;53.68;101144.28;5109746;27;20624;-75
2021/06/14 04:43:03;;;;;;;9.47;2.67;;;;;;;17.57;54.20;101156.59;5111396;27;20200;-75
2021/06/14 04:45:31;;;;;;;7.73;2.90;;;;;;;17.41;56.85;101150.81;5107143;28;20265;-75
2021/06/14 04:47:59;;;;;;;6.10;2.43;;;;;;;17.53;55.04;101151.56;5099977;28;20194;-72
2021/06/14 04:50:28;;;;;;;7.90;2.70;;;;;;;17.46;56.06;101142.28;5099080;28;20224;-72
2021/06/14 04:52:57;;;;;;;9.13;2.70;;;;;;;17.57;55.05;101151.16;5105884;28;20196;-72
2021/06/14 04:55:26;;;;;;;6.50;2.77;;;;;;;17.49;56.01;101142.84;5108664;28;20553;-71
2021/06/14 04:57:54;;;;;;;6.07;3.00;;;;;;;17.57;57.20;101148.44;5107802;28;20212;-71
2021/06/14 05:00:24;;;;;;;8.53;3.07;;;;;;;17.52;58.96;101150.72;5107035;28;20196;-73
2021/06/14 05:02:52;;;;;;;7.03;2.80;;;;;;;17.95;55.82;101141.38;5109095;28;20199;-71
2021/06/14 05:05:20;;;;;;;9.17;2.50;;;;;;;18.13;57.14;101150.56;5109528;28;20219;-71
2021/06/14 05:07:48;;;;;;;8.00;3.00;;;;;;;18.38;56.06;101150.97;5109578;28;20196;-72
2021/06/14 05:10:17;;;;;;;5.17;2.60;;;;;;;18.53;56.10;101153.09;5099284;28;20728;-72
2021/06/14 05:12:46;;;;;;;8.83;2.73;;;;;;;18.73;55.86;101156.69;5107597;28;20208;-71
2021/06/14 05:15:15;;;;;;;6.00;2.57;;;;;;;18.79;56.10;101155.22;5102751;28;20783;-72
2021/06/14 05:17:43;;;;;;;6.40;2.87;;;;;;;18.98;55.41;101151.59;5113310;28;20203;-72
2021/06/14 05:20:16;;;;;;;5.47;2.83;;;;;;;19.19;55.59;101160.41;5112890;28;20196;-72
2021/06/14 05:22:44;;;;;;;7.60;2.87;;;;;;;19.23;55.50;101142.75;5109620;28;20310;-72
2021/06/14 05:25:14;;;;;;;6.23;2.77;;;;;;;19.38;55.67;101151.28;5101926;28;20212;-72
2021/06/14 05:27:43;;;;;;;7.27;2.80;;;;;;;19.56;54.43;101133.16;5112645;28;20200;-72
2021/06/14 05:30:13;;;;;;;4.33;2.33;;;;;;;19.80;54.68;101148.91;5111131;28;20734;-72
2021/06/14 05:32:41;;;;;;;8.60;3.00;;;;;;;19.83;54.73;101110.44;5112135;28;20218;-71
2021/06/14 05:35:10;;;;;;;5.10;2.30;;;;;;;20.51;52.73;101148.97;5108890;28;20215;-71
2021/06/14 05:37:39;;;;;;;8.00;2.30;;;;;;;20.77;51.73;101147.09;5110537;28;20650;-71
2021/06/14 05:40:08;;;;;;;11.90;3.07;;;;;;;20.88;49.66;101142.41;5110177;27;20202;-71
2021/06/14 05:42:37;;;;;;;2.83;2.10;;;;;;;21.11;49.69;101159.94;5110308;27;20555;-72
2021/06/14 05:45:07;;;;;;;4.83;2.40;;;;;;;21.30;49.71;101148.81;5110925;28;20796;-72
2021/06/14 05:47:37;;;;;;;5.53;2.43;;;;;;;21.34;50.69;101155.66;5109982;28;20264;-72
2021/06/14 05:50:07;;;;;;;7.37;2.40;;;;;;;21.21;49.74;101114.25;5111684;28;20651;-72
2021/06/14 05:52:35;;;;;;;5.17;2.20;;;;;;;21.79;48.70;101137.22;5107354;28;20188;-72
2021/06/14 05:55:05;;;;;;;5.23;2.63;;;;;;;22.07;48.05;101137.81;5108464;28;20194;-72
2021/06/14 05:57:33;;;;;;;7.43;2.57;;;;;;;22.39;47.57;101135.09;5109469;27;20192;-72
2021/06/14 06:00:01;;;;;;;6.07;2.30;;;;;;;22.60;46.50;101140.03;5111504;28;20200;-72
2021/06/14 06:02:40;;;;;;;5.30;2.40;;;;;;;22.76;46.82;101136.44;5110135;28;20215;-72
2021/06/14 06:05:10;;;;;;;4.00;2.20;;;;;;;22.65;47.04;101134.88;5111821;28;20195;-72
2021/06/14 06:07:38;;;;;;;4.70;2.33;;;;;;;22.56;46.97;101103.06;5110061;27;20219;-73
2021/06/14 06:10:09;;;;;;;5.73;2.57;;;;;;;22.77;46.90;101122.56;5111905;28;20562;-72
2021/06/14 06:12:39;;;;;;;4.00;2.17;;;;;;;23.03;45.88;101116.03;5109229;28;20196;-72
2021/06/14 06:15:09;;;;;;;3.80;2.20;;;;;;;23.48;44.93;101126.28;5111420;28;20230;-73
2021/06/14 06:17:37;;;;;;;6.20;2.50;;;;;;;23.59;44.92;101139.66;5109173;27;20584;-72
2021/06/14 06:20:10;;;;;;;4.80;2.30;;;;;;;23.31;45.20;101092.63;5106988;27;20588;-72
2021/06/14 06:22:39;;;;;;;5.07;2.13;;;;;;;23.40;46.81;101142.78;5107442;27;20203;-73
2021/06/14 06:25:08;;;;;;;4.20;2.20;;;;;;;23.54;46.60;101139.28;5111274;28;20202;-72
2021/06/14 06:27:36;;;;;;;4.07;2.20;;;;;;;23.82;44.93;101124.06;5101336;28;20220;-72
2021/06/14 06:30:06;;;;;;;2.25;1.75;;;;;;;23.78;45.61;101132.84;5109845;27;20625;-72
2021/06/14 06:32:34;;;;;;;4.40;1.90;;;;;;;23.68;45.77;101121.25;5108211;27;20204;-72
2021/06/14 06:35:04;;;;;;;6.57;2.10;;;;;;;23.77;43.99;101079.03;5106057;28;20249;-72
2021/06/14 06:37:33;;;;;;;3.10;2.15;;;;;;;23.92;44.91;101117.53;5104861;28;20203;-72
2021/06/14 06:40:01;;;;;;;4.33;2.00;;;;;;;23.43;46.31;101118.59;5108547;28;20196;-73
2021/06/14 06:42:29;;;;;;;5.17;2.10;;;;;;;23.72;45.77;101126.19;5111272;28;20245;-73
2021/06/14 06:44:57;;;;;;;3.67;2.00;;;;;;;23.68;45.17;101111.16;5108588;28;20277;-73
2021/06/14 06:47:25;;;;;;;6.20;2.20;;;;;;;23.16;47.29;101121.78;5108054;28;20599;-73
2021/06/14 06:49:53;;;;;;;2.60;2.00;;;;;;;23.33;46.96;101128.94;5108586;28;20204;-72
2021/06/14 06:52:22;;;;;;;3.53;1.93;;;;;;;23.41;45.86;101114.34;5107222;27;20245;-73
2021/06/14 06:54:51;;;;;;;3.23;1.90;;;;;;;23.31;47.59;101127.41;5110066;27;20204;-72
2021/06/14 06:57:20;;;;;;;2.97;1.90;;;;;;;23.22;46.88;101124.69;5101112;28;20188;-72
2021/06/14 06:59:48;;;;;;;2.87;1.90;;;;;;;23.35;47.02;101101.34;5109138;28;20207;-72
2021/06/14 07:02:16;;;;;;;5.03;1.90;;;;;;;23.67;45.97;101112.19;5109953;28;20279;-72
2021/06/14 07:04:45;;;;;;;6.50;2.20;;;;;;;23.13;48.75;101094.75;5120441;27;20677;-72
2021/06/14 07:07:13;;;;;;;6.83;1.90;;;;;;;23.51;47.27;101110.34;5109993;28;20216;-73
2021/06/14 07:09:41;;;;;;;2.77;2.00;;;;;;;23.89;45.37;101120.63;5101406;28;20940;-73
2021/06/14 07:12:12;;;;;;;3.40;1.70;;;;;;;23.63;45.92;101118.22;5102636;28;20208;-73
2021/06/14 07:14:40;;;;;;;5.00;1.60;;;;;;;23.46;46.09;101115.50;5096588;28;20227;-73
2021/06/14 07:17:09;;;;;;;3.23;1.70;;;;;;;23.28;47.22;101106.69;5111564;28;20761;-73
2021/06/14 07:19:37;;;;;;;3.80;1.63;;;;;;;23.29;47.49;101124.00;5103820;28;20276;-73
2021/06/14 07:22:05;;;;;;;2.17;1.53;;;;;;;23.02;47.16;101093.25;5100448;28;20207;-73
2021/06/14 07:24:34;;;;;;;5.47;2.10;;;;;;;22.62;48.28;101075.84;5088528;28;20197;-72
2021/06/14 07:27:02;;;;;;;7.07;2.07;;;;;;;22.88;48.60;101115.88;5100285;28;20665;-72
2021/06/14 07:29:31;;;;;;;2.27;1.83;;;;;;;22.69;49.01;101108.88;5105544;28;20195;-72
2021/06/14 07:31:59;;;;;;;2.57;1.70;;;;;;;22.27;50.77;101109.06;5105295;28;20206;-72
2021/06/14 07:34:28;;;;;;;2.77;1.80;;;;;;;22.68;48.42;101101.69;5106134;28;20226;-73
2021/06/14 07:36:56;;;;;;;3.93;1.77;;;;;;;22.40;49.98;101103.94;5105136;28;20215;-74
2021/06/14 07:39:25;;;;;;;5.03;2.10;;;;;;;22.41;50.55;101093.84;5107100;27;20208;-73
2021/06/14 07:41:54;;;;;;;3.43;2.03;;;;;;;22.58;49.44;101087.31;5108878;28;20409;-73
2021/06/14 07:44:23;;;;;;;2.60;1.70;;;;;;;22.11;50.43;101037.94;5108840;28;20623;-73
2021/06/14 07:46:54;;;;;;;2.70;1.70;;;;;;;22.50;50.57;101081.88;5104620;28;20288;-73
2021/06/14 07:49:23;;;;;;;1.67;1.57;;;;;;;22.66;49.83;101072.78;5108227;27;20202;-73
2021/06/14 07:51:51;;;;;;;3.57;1.77;;;;;;;22.59;50.40;101076.19;5096702;28;20663;-73
2021/06/14 07:54:19;;;;;;;1.97;1.60;;;;;;;23.12;47.72;101071.97;5109218;28;20594;-73
2021/06/14 07:56:48;;;;;;;3.87;1.63;;;;;;;23.49;46.72;101078.63;5107988;28;20187;-73
2021/06/14 07:59:16;;;;;;;4.50;1.70;;;;;;;23.42;48.49;101083.13;5102215;28;20649;-72
2021/06/14 08:01:44;;;;;;;2.47;1.43;;;;;;;23.68;46.74;101080.97;5106443;28;20195;-72
2021/06/14 08:04:14;;;;;;;3.10;1.73;;;;;;;23.77;47.07;101087.25;5107249;27;20231;-72
2021/06/14 08:06:44;;;;;;;4.47;1.87;;;;;;;23.43;47.85;101090.34;5104256;28;20256;-73
2021/06/14 08:09:15;;;;;;;3.37;2.00;;;;;;;23.34;47.42;101091.41;5105984;28;20244;-73
2021/06/14 08:11:44;;;;;;;4.30;1.50;;;;;;;22.93;48.64;101091.56;5108057;28;20228;-74
2021/06/14 08:14:13;;;;;;;2.97;1.40;;;;;;;22.86;48.53;101096.03;5105332;28;20234;-74
2021/06/14 08:16:42;;;;;;;2.17;1.40;;;;;;;22.58;48.95;101082.69;5117033;27;20230;-74
2021/06/14 08:19:15;;;;;;;1.77;1.50;;;;;;;22.56;49.61;101079.28;5107357;27;20196;-73
2021/06/14 08:22:02;;;;;;;2.40;1.50;;;;;;;22.30;50.84;101071.25;5103727;28;20388;-73
2021/06/14 08:27:16;;;;;;;4.10;1.60;;;;;;;22.31;51.83;101063.91;5099532;27;20208;-73
2021/06/14 08:29:44;;;;;;;1.60;1.50;;;;;;;22.39;52.79;101050.25;5105617;28;20574;-73
2021/06/14 08:32:12;;;;;;;1.67;1.40;;;;;;;22.79;48.87;101021.03;5105633;28;20208;-73
2021/06/14 08:34:40;;;;;;;1.50;1.40;;;;;;;23.47;48.01;101067.00;5103706;28;20634;-74
2021/06/14 08:37:10;;;;;;;3.00;1.37;;;;;;;23.74;49.50;101061.03;5106961;28;20212;-73
2021/06/14 08:39:38;;;;;;;3.20;1.70;;;;;;;23.95;48.42;101027.44;5106263;28;20203;-73
2021/06/14 08:42:07;;;;;;;1.73;1.43;;;;;;;24.37;47.96;101026.91;5106537;28;20184;-73
2021/06/14 08:44:35;;;;;;;3.30;1.53;;;;;;;24.46;46.13;101030.44;5107651;28;20227;-73
2021/06/14 08:47:06;;;;;;;1.40;1.20;;;;;;;24.73;46.93;101040.78;5107964;28;20223;-73
2021/06/14 08:49:35;;;;;;;1.63;1.33;;;;;;;25.05;46.50;101025.81;5104384;28;20199;-73
2021/06/14 08:52:05;;;;;;;2.80;1.50;;;;;;;25.17;46.01;101017.09;5106971;28;20223;-73
2021/06/14 08:54:37;;;;;;;5.30;1.70;;;;;;;25.26;45.78;101018.69;5107336;28;20716;-73
2021/06/14 08:57:08;;;;;;;1.87;1.67;;;;;;;25.28;46.89;100995.44;5103781;28;20192;-74
2021/06/14 08:59:36;;;;;;;2.97;1.50;;;;;;;25.53;46.72;101019.84;5104243;28;20278;-72
2021/06/14 09:02:05;;;;;;;2.38;1.50;;;;;;;25.99;45.11;101020.31;5104804;28;20204;-72
2021/06/14 09:04:34;;;;;;;1.55;1.42;;;;;;;25.76;45.24;100964.66;5103882;28;20192;-73
2021/06/14 09:07:03;;;;;;;2.47;1.20;;;;;;;26.20;44.25;101023.06;5122531;27;20294;-73
2021/06/14 09:09:34;;;;;;;2.47;1.60;;;;;;;26.37;43.89;101022.81;5106560;28;20491;-73
2021/06/14 09:12:07;;;;;;;1.67;1.50;;;;;;;26.75;43.24;101021.38;5106785;28;20699;-72
2021/06/14 09:14:40;;;;;;;5.45;1.98;;;;;;;27.20;41.94;101013.53;5100698;28;20227;-72
2021/06/14 09:17:12;;;;;;;1.55;1.45;;;;;;;27.32;40.94;101011.06;5107593;28;20192;-72
2021/06/14 09:19:42;;;;;;;2.45;1.35;;;;;;;27.34;41.44;100990.50;5104646;28;20243;-72
2021/06/14 09:22:13;;;;;;;1.40;1.30;;;;;;;27.62;41.52;100981.25;5122942;27;20303;-72
2021/06/14 09:24:55;;;;;;;3.03;1.40;;;;;;;27.94;40.87;101005.28;5106710;28;20188;-72
2021/06/14 09:27:31;;;;;;;2.40;1.60;;;;;;;27.92;40.74;100990.84;5122219;27;20326;-73
2021/06/14 09:30:12;;;;;;;3.63;1.40;;;;;;;28.05;40.19;100978.94;5122357;27;20192;-73
2021/06/14 09:32:50;;;;;;;2.63;1.60;;;;;;;28.04;40.13;101002.09;5106663;28;20187;-73
2021/06/14 09:35:20;;;;;;;1.30;1.20;;;;;;;27.92;40.20;100998.28;5105030;28;20204;-73
2021/06/14 09:38:03;;;;;;;1.98;1.40;;;;;;;27.71;40.90;100993.78;5103686;28;20310;-73
2021/06/14 09:40:36;;;;;;;4.20;1.48;;;;;;;27.89;40.72;100982.97;5104287;28;20355;-73
2021/06/14 09:43:07;;;;;;;9.52;1.40;;;;;;;27.95;41.45;100973.84;5106592;28;20569;-73
2021/06/14 09:45:41;;;;;;;1.15;1.05;;;;;;;28.45;39.59;100963.19;5103241;28;20211;-72
2021/06/14 09:48:16;;;;;;;1.40;1.30;;;;;;;28.61;39.48;100970.16;5106406;28;20223;-74
2021/06/14 09:50:47;;;;;;;2.28;1.27;;;;;;;28.57;40.48;100971.69;5106120;28;20192;-73
2021/06/14 09:53:17;;;;;;;3.22;1.40;;;;;;;28.55;41.14;100966.38;5107155;28;20709;-73
2021/06/14 09:55:48;;;;;;;2.88;1.42;;;;;;;28.75;38.94;100927.56;5104042;28;20208;-73
2021/06/14 09:58:20;;;;;;;3.05;1.50;;;;;;;29.13;38.47;100955.34;5106850;28;20196;-73
2021/06/14 10:00:55;;;;;;;3.95;1.63;;;;;;;29.10;39.72;100952.16;5109404;28;20210;-74
2021/06/14 10:03:26;;;;;;;1.40;1.30;;;;;;;29.02;40.30;100931.09;5110014;28;20244;-73
2021/06/14 10:05:57;;;;;;;4.07;1.42;;;;;;;29.09;40.08;100943.00;5111074;28;20192;-73
2021/06/14 10:08:28;;;;;;;3.13;1.40;;;;;;;29.12;39.78;100948.09;5110561;28;20220;-74
2021/06/14 10:11:07;;;;;;;1.70;1.50;;;;;;;29.09;39.19;100908.97;5109753;28;20335;-74
2021/06/14 10:13:37;;;;;;;1.38;1.30;;;;;;;29.57;38.39;100940.59;5110781;28;20253;-72
2021/06/14 10:16:09;;;;;;;2.30;1.23;;;;;;;29.76;38.84;100943.47;5107435;28;20199;-72
2021/06/14 10:18:40;;;;;;;2.35;1.10;;;;;;;29.82;37.89;100945.31;5107867;28;20216;-73
2021/06/14 10:21:10;;;;;;;1.23;1.17;;;;;;;29.66;37.72;100941.16;5109559;28;20275;-73
2021/06/14 10:23:40;;;;;;;1.42;1.33;;;;;;;29.33;38.60;100933.91;5109276;27;20192;-73
2021/06/14 10:26:09;;;;;;;2.40;1.27;;;;;;;29.27;37.43;100932.03;5108636;27;20202;-73
2021/06/14 10:28:37;;;;;;;1.35;1.25;;;;;;;28.93;38.66;100932.44;5109727;28;20261;-73
2021/06/14 10:31:06;;;;;;;5.57;1.83;;;;;;;28.30;40.01;100926.66;5109794;28;20188;-72
2021/06/14 10:33:34;;;;;;;1.30;1.20;;;;;;;28.58;39.15;100930.00;5108497;28;20208;-73
2021/06/14 10:36:04;;;;;;;2.45;1.60;;;;;;;28.28;38.94;100906.69;5124694;27;20220;-72
2021/06/14 10:38:46;;;;;;;2.80;1.40;;;;;;;28.05;39.44;100921.78;5109455;28;20200;-73
2021/06/14 10:41:16;;;;;;;2.42;1.33;;;;;;;27.48;40.99;100919.59;5106710;28;20208;-73
2021/06/14 10:43:46;;;;;;;1.55;1.33;;;;;;;27.57;40.07;100882.50;5106600;27;20193;-71
2021/06/14 10:46:17;;;;;;;2.08;1.60;;;;;;;27.45;40.58;100907.09;5106771;28;20196;-71
2021/06/14 10:48:47;;;;;;;1.58;1.40;;;;;;;27.41;40.59;100904.97;5107095;27;20252;-72
2021/06/14 10:51:18;;;;;;;1.80;1.25;;;;;;;27.36;40.40;100902.84;5112284;27;20199;-73
2021/06/14 10:53:50;;;;;;;1.80;1.70;;;;;;;26.96;41.85;100914.81;5109428;28;20287;-72
2021/06/14 10:56:24;;;;;;;1.52;1.42;;;;;;;26.95;41.42;100910.34;5126564;27;20307;-73
2021/06/14 10:58:59;;;;;;;1.52;1.30;;;;;;;26.65;41.96;100902.41;5110068;28;20188;-73
2021/06/14 11:01:33;;;;;;;4.28;1.70;;;;;;;26.40;42.92;100912.22;5108513;28;20256;-72
2021/06/14 11:04:03;;;;;;;1.40;1.30;;;;;;;26.24;43.06;100908.69;5110479;28;20253;-72
2021/06/14 11:06:32;;;;;;;1.58;1.33;;;;;;;25.92;43.30;100909.31;5109829;28;20184;-71
2021/06/14 11:09:12;;;;;;;2.60;1.45;;;;;;;25.42;44.49;100913.09;5110465;28;20215;-73
2021/06/14 11:11:54;;;;;;;2.22;1.40;;;;;;;25.33;45.39;100912.34;5106115;28;20207;-74
2021/06/14 11:14:31;;;;;;;1.85;1.60;;;;;;;25.22;44.97;100896.38;5109832;28;20226;-73
2021/06/14 11:17:19;;;;;;;1.83;1.23;;;;;;;25.15;45.63;100901.81;5090288;28;20204;-72
2021/06/14 11:19:50;;;;;;;3.13;1.42;;;;;;;25.00;45.88;100893.59;5108140;28;20619;-75
2021/06/14 11:22:19;;;;;;;2.70;1.20;;;;;;;24.88;47.32;100886.03;5110258;28;20196;-73
2021/06/14 11:24:49;;;;;;;1.35;1.25;;;;;;;24.93;46.46;100886.31;5124245;27;20296;-73
2021/06/14 11:27:18;;;;;;;2.22;1.15;;;;;;;24.90;46.31;100893.06;5110087;28;20247;-73
2021/06/14 11:29:54;;;;;;;1.40;1.30;;;;;;;24.98;45.80;100881.06;5108876;28;20219;-72
2021/06/14 11:32:23;;;;;;;1.25;1.00;;;;;;;24.69;46.86;100871.00;5109636;28;20191;-74
2021/06/14 11:34:59;;;;;;;1.15;1.05;;;;;;;24.87;45.97;100867.84;5106824;28;20199;-75
2021/06/14 11:37:40;;;;;;;0.90;0.90;;;;;;;24.87;45.88;100865.97;5094802;28;20265;-75
2021/06/14 11:40:11;;;;;;;2.30;1.30;;;;;;;24.87;45.64;100876.94;5098811;28;20188;-74
2021/06/14 11:42:46;;;;;;;1.38;1.10;;;;;;;25.07;45.59;100875.28;5108195;28;20396;-74